ETSN

Neuburg Airport

Germany
METAR ETSN 172220Z 29004KT 9999 FEW110 18/13 Q1017 BLU+
Observed Flight Rules
Jul-17 @ 22:20 UTC (57 minutes ago) Visual Flight Rules
Wind Visibility Clouds
290° at 4 knots 10,000+ meters
  • Few at 11,000' AGL
Temperatures Readings
Current 18°C / 64°F
Dewpoint 13°C / 55°F
Humidity 73%
Altimeter 30.03" Hg
Pressure 1017 hPa
Elevation 387
METAR ETSN 172220Z 29004KT 9999 FEW110 18/13 Q1017 BLU+
Observed Flight Rules
Jul-17 @ 22:20 UTC
(57 minutes ago)
VFR
Wind Visibility
290° at 4 knots 10,000+ meters
Clouds
  • Few at 11,000' AGL
Temperature Dewpoint
18°C / 64°F 13°C / 55°F
Humidity Altimeter Pressure
73% 30.03" Hg 1017 hPa